sensor_id;sensor_type;location;lat;lon;timestamp;P1;durP1;ratioP1;P2;durP2;ratioP2
41099;SDS011;26844;53.686;-6.346;2024-03-25T00:00:21;15.30;;;14.60;;
41099;SDS011;26844;53.686;-6.346;2024-03-25T00:02:50;15.75;;;14.95;;
41099;SDS011;26844;53.686;-6.346;2024-03-25T00:05:16;15.68;;;14.88;;
41099;SDS011;26844;53.686;-6.346;2024-03-25T00:07:47;15.23;;;14.52;;
41099;SDS011;26844;53.686;-6.346;2024-03-25T00:10:12;15.00;;;14.30;;
41099;SDS011;26844;53.686;-6.346;2024-03-25T00:12:37;14.80;;;14.10;;
41099;SDS011;26844;53.686;-6.346;2024-03-25T00:15:03;14.65;;;13.95;;
41099;SDS011;26844;53.686;-6.346;2024-03-25T00:17:29;14.43;;;13.73;;
41099;SDS011;26844;53.686;-6.346;2024-03-25T00:19:54;14.50;;;13.80;;
41099;SDS011;26844;53.686;-6.346;2024-03-25T00:22:20;14.40;;;13.70;;
41099;SDS011;26844;53.686;-6.346;2024-03-25T00:24:45;14.57;;;13.88;;
41099;SDS011;26844;53.686;-6.346;2024-03-25T00:27:11;14.43;;;13.73;;
41099;SDS011;26844;53.686;-6.346;2024-03-25T00:29:36;14.40;;;13.70;;
41099;SDS011;26844;53.686;-6.346;2024-03-25T00:32:02;14.13;;;13.43;;
41099;SDS011;26844;53.686;-6.346;2024-03-25T00:34:27;14.30;;;13.60;;
41099;SDS011;26844;53.686;-6.346;2024-03-25T00:36:52;14.70;;;14.00;;
41099;SDS011;26844;53.686;-6.346;2024-03-25T00:39:18;14.00;;;13.30;;
41099;SDS011;26844;53.686;-6.346;2024-03-25T00:41:44;14.20;;;13.50;;
41099;SDS011;26844;53.686;-6.346;2024-03-25T00:44:09;14.10;;;13.43;;
41099;SDS011;26844;53.686;-6.346;2024-03-25T00:46:35;13.65;;;13.05;;
41099;SDS011;26844;53.686;-6.346;2024-03-25T00:49:00;13.10;;;12.50;;
41099;SDS011;26844;53.686;-6.346;2024-03-25T00:51:26;13.00;;;12.40;;
41099;SDS011;26844;53.686;-6.346;2024-03-25T00:53:51;12.88;;;12.27;;
41099;SDS011;26844;53.686;-6.346;2024-03-25T00:56:17;12.75;;;12.15;;
41099;SDS011;26844;53.686;-6.346;2024-03-25T00:58:42;12.98;;;12.38;;
41099;SDS011;26844;53.686;-6.346;2024-03-25T01:01:07;12.50;;;12.00;;
41099;SDS011;26844;53.686;-6.346;2024-03-25T01:03:33;12.80;;;12.20;;
41099;SDS011;26844;53.686;-6.346;2024-03-25T01:05:59;12.43;;;11.93;;
41099;SDS011;26844;53.686;-6.346;2024-03-25T01:08:24;12.98;;;12.38;;
41099;SDS011;26844;53.686;-6.346;2024-03-25T01:10:49;12.73;;;12.13;;
41099;SDS011;26844;53.686;-6.346;2024-03-25T01:13:15;12.18;;;11.68;;
41099;SDS011;26844;53.686;-6.346;2024-03-25T01:15:41;12.20;;;11.70;;
41099;SDS011;26844;53.686;-6.346;2024-03-25T01:18:07;12.63;;;12.10;;
41099;SDS011;26844;53.686;-6.346;2024-03-25T01:20:32;12.20;;;11.70;;
41099;SDS011;26844;53.686;-6.346;2024-03-25T01:22:57;12.50;;;12.00;;
41099;SDS011;26844;53.686;-6.346;2024-03-25T01:25:22;12.15;;;11.65;;
41099;SDS011;26844;53.686;-6.346;2024-03-25T01:27:48;12.30;;;11.80;;
41099;SDS011;26844;53.686;-6.346;2024-03-25T01:30:13;12.93;;;12.32;;
41099;SDS011;26844;53.686;-6.346;2024-03-25T01:32:39;12.50;;;12.00;;
41099;SDS011;26844;53.686;-6.346;2024-03-25T01:35:05;13.15;;;12.55;;
41099;SDS011;26844;53.686;-6.346;2024-03-25T01:37:30;12.50;;;12.00;;
41099;SDS011;26844;53.686;-6.346;2024-03-25T01:39:56;12.45;;;11.95;;
41099;SDS011;26844;53.686;-6.346;2024-03-25T01:42:21;12.70;;;12.10;;
41099;SDS011;26844;53.686;-6.346;2024-03-25T01:44:46;12.43;;;11.93;;
41099;SDS011;26844;53.686;-6.346;2024-03-25T01:47:13;12.30;;;11.80;;
41099;SDS011;26844;53.686;-6.346;2024-03-25T01:49:38;12.65;;;12.07;;
41099;SDS011;26844;53.686;-6.346;2024-03-25T01:52:04;12.00;;;11.50;;
41099;SDS011;26844;53.686;-6.346;2024-03-25T01:54:31;12.23;;;11.73;;
41099;SDS011;26844;53.686;-6.346;2024-03-25T01:56:56;12.00;;;11.50;;
41099;SDS011;26844;53.686;-6.346;2024-03-25T01:59:22;12.15;;;11.65;;
41099;SDS011;26844;53.686;-6.346;2024-03-25T02:01:48;12.35;;;11.85;;
41099;SDS011;26844;53.686;-6.346;2024-03-25T02:04:13;12.25;;;11.75;;
41099;SDS011;26844;53.686;-6.346;2024-03-25T02:06:40;11.90;;;11.40;;
41099;SDS011;26844;53.686;-6.346;2024-03-25T02:09:05;12.25;;;11.75;;
41099;SDS011;26844;53.686;-6.346;2024-03-25T02:11:31;12.00;;;11.50;;
41099;SDS011;26844;53.686;-6.346;2024-03-25T02:13:57;11.85;;;11.35;;
41099;SDS011;26844;53.686;-6.346;2024-03-25T02:16:22;12.00;;;11.50;;
41099;SDS011;26844;53.686;-6.346;2024-03-25T02:18:47;12.23;;;11.73;;
41099;SDS011;26844;53.686;-6.346;2024-03-25T02:21:13;12.10;;;11.60;;
41099;SDS011;26844;53.686;-6.346;2024-03-25T02:23:40;12.15;;;11.65;;
41099;SDS011;26844;53.686;-6.346;2024-03-25T02:26:07;12.00;;;11.50;;
41099;SDS011;26844;53.686;-6.346;2024-03-25T02:28:32;11.52;;;11.02;;
41099;SDS011;26844;53.686;-6.346;2024-03-25T02:30:58;11.82;;;11.32;;
41099;SDS011;26844;53.686;-6.346;2024-03-25T02:33:23;12.02;;;11.52;;
41099;SDS011;26844;53.686;-6.346;2024-03-25T02:35:48;11.65;;;11.15;;
41099;SDS011;26844;53.686;-6.346;2024-03-25T02:38:14;11.65;;;11.15;;
41099;SDS011;26844;53.686;-6.346;2024-03-25T02:40:42;11.55;;;11.05;;
41099;SDS011;26844;53.686;-6.346;2024-03-25T02:43:09;11.60;;;11.10;;
41099;SDS011;26844;53.686;-6.346;2024-03-25T02:45:35;11.37;;;10.87;;
41099;SDS011;26844;53.686;-6.346;2024-03-25T02:48:00;11.55;;;11.05;;
41099;SDS011;26844;53.686;-6.346;2024-03-25T02:50:25;11.40;;;10.90;;
41099;SDS011;26844;53.686;-6.346;2024-03-25T02:52:50;11.02;;;10.52;;
41099;SDS011;26844;53.686;-6.346;2024-03-25T02:55:16;11.40;;;10.90;;
41099;SDS011;26844;53.686;-6.346;2024-03-25T02:57:41;11.20;;;10.70;;
41099;SDS011;26844;53.686;-6.346;2024-03-25T03:00:06;11.40;;;10.90;;
41099;SDS011;26844;53.686;-6.346;2024-03-25T03:02:34;11.10;;;10.60;;
41099;SDS011;26844;53.686;-6.346;2024-03-25T03:04:59;11.32;;;10.82;;
41099;SDS011;26844;53.686;-6.346;2024-03-25T03:07:24;11.13;;;10.63;;
41099;SDS011;26844;53.686;-6.346;2024-03-25T03:09:49;11.60;;;11.10;;
41099;SDS011;26844;53.686;-6.346;2024-03-25T03:12:15;11.45;;;10.95;;
41099;SDS011;26844;53.686;-6.346;2024-03-25T03:14:40;11.52;;;11.02;;
41099;SDS011;26844;53.686;-6.346;2024-03-25T03:17:05;11.60;;;11.10;;
41099;SDS011;26844;53.686;-6.346;2024-03-25T03:19:31;11.10;;;10.60;;
41099;SDS011;26844;53.686;-6.346;2024-03-25T03:21:56;11.32;;;10.82;;
41099;SDS011;26844;53.686;-6.346;2024-03-25T03:24:22;11.38;;;10.88;;
41099;SDS011;26844;53.686;-6.346;2024-03-25T03:26:47;10.85;;;10.45;;
41099;SDS011;26844;53.686;-6.346;2024-03-25T03:29:13;11.35;;;10.85;;
41099;SDS011;26844;53.686;-6.346;2024-03-25T03:31:38;11.68;;;11.18;;
41099;SDS011;26844;53.686;-6.346;2024-03-25T03:34:03;11.77;;;11.27;;
41099;SDS011;26844;53.686;-6.346;2024-03-25T03:36:29;10.70;;;10.30;;
41099;SDS011;26844;53.686;-6.346;2024-03-25T03:38:54;11.05;;;10.55;;
41099;SDS011;26844;53.686;-6.346;2024-03-25T03:41:20;11.10;;;10.60;;
41099;SDS011;26844;53.686;-6.346;2024-03-25T03:43:45;11.10;;;10.60;;
41099;SDS011;26844;53.686;-6.346;2024-03-25T03:46:10;10.60;;;10.20;;
41099;SDS011;26844;53.686;-6.346;2024-03-25T03:48:36;11.00;;;10.50;;
41099;SDS011;26844;53.686;-6.346;2024-03-25T03:51:03;11.10;;;10.60;;
41099;SDS011;26844;53.686;-6.346;2024-03-25T03:53:28;11.00;;;10.50;;
41099;SDS011;26844;53.686;-6.346;2024-03-25T03:55:58;11.38;;;10.88;;
41099;SDS011;26844;53.686;-6.346;2024-03-25T03:58:24;11.00;;;10.50;;
41099;SDS011;26844;53.686;-6.346;2024-03-25T04:00:50;11.00;;;10.50;;
41099;SDS011;26844;53.686;-6.346;2024-03-25T04:03:16;10.90;;;10.40;;
41099;SDS011;26844;53.686;-6.346;2024-03-25T04:05:41;10.93;;;10.43;;
41099;SDS011;26844;53.686;-6.346;2024-03-25T04:08:06;11.30;;;10.80;;
41099;SDS011;26844;53.686;-6.346;2024-03-25T04:10:32;10.93;;;10.43;;
41099;SDS011;26844;53.686;-6.346;2024-03-25T04:12:58;11.43;;;10.93;;
41099;SDS011;26844;53.686;-6.346;2024-03-25T04:15:23;10.65;;;10.25;;
41099;SDS011;26844;53.686;-6.346;2024-03-25T04:17:48;10.85;;;10.40;;
41099;SDS011;26844;53.686;-6.346;2024-03-25T04:20:16;10.30;;;9.90;;
41099;SDS011;26844;53.686;-6.346;2024-03-25T04:22:42;10.68;;;10.27;;
41099;SDS011;26844;53.686;-6.346;2024-03-25T04:25:08;11.23;;;10.73;;
41099;SDS011;26844;53.686;-6.346;2024-03-25T04:27:36;10.70;;;10.30;;
41099;SDS011;26844;53.686;-6.346;2024-03-25T04:30:01;10.70;;;10.30;;
41099;SDS011;26844;53.686;-6.346;2024-03-25T04:32:26;10.93;;;10.43;;
41099;SDS011;26844;53.686;-6.346;2024-03-25T04:34:52;10.65;;;10.25;;
41099;SDS011;26844;53.686;-6.346;2024-03-25T04:37:17;10.60;;;10.20;;
41099;SDS011;26844;53.686;-6.346;2024-03-25T04:39:42;10.70;;;10.30;;
41099;SDS011;26844;53.686;-6.346;2024-03-25T04:42:07;10.65;;;10.25;;
41099;SDS011;26844;53.686;-6.346;2024-03-25T04:44:33;10.50;;;10.10;;
41099;SDS011;26844;53.686;-6.346;2024-03-25T04:46:58;10.75;;;10.35;;
41099;SDS011;26844;53.686;-6.346;2024-03-25T04:49:23;10.43;;;10.02;;
41099;SDS011;26844;53.686;-6.346;2024-03-25T04:51:48;10.20;;;9.80;;
41099;SDS011;26844;53.686;-6.346;2024-03-25T04:54:16;10.15;;;9.75;;
41099;SDS011;26844;53.686;-6.346;2024-03-25T04:56:42;10.68;;;10.27;;
41099;SDS011;26844;53.686;-6.346;2024-03-25T04:59:07;10.25;;;9.85;;
41099;SDS011;26844;53.686;-6.346;2024-03-25T05:01:32;10.30;;;9.90;;
41099;SDS011;26844;53.686;-6.346;2024-03-25T05:03:57;10.40;;;10.00;;
41099;SDS011;26844;53.686;-6.346;2024-03-25T05:06:23;10.52;;;10.13;;
41099;SDS011;26844;53.686;-6.346;2024-03-25T05:08:48;9.98;;;9.57;;
41099;SDS011;26844;53.686;-6.346;2024-03-25T05:11:13;10.15;;;9.75;;
41099;SDS011;26844;53.686;-6.346;2024-03-25T05:13:38;10.10;;;9.70;;
41099;SDS011;26844;53.686;-6.346;2024-03-25T05:16:04;9.90;;;9.50;;
41099;SDS011;26844;53.686;-6.346;2024-03-25T05:18:29;10.48;;;10.07;;
41099;SDS011;26844;53.686;-6.346;2024-03-25T05:20:54;10.13;;;9.73;;
41099;SDS011;26844;53.686;-6.346;2024-03-25T05:23:20;10.07;;;9.68;;
41099;SDS011;26844;53.686;-6.346;2024-03-25T05:25:45;9.88;;;9.48;;
41099;SDS011;26844;53.686;-6.346;2024-03-25T05:28:10;9.80;;;9.40;;
41099;SDS011;26844;53.686;-6.346;2024-03-25T05:30:38;9.85;;;9.45;;
41099;SDS011;26844;53.686;-6.346;2024-03-25T05:33:03;9.68;;;9.27;;
41099;SDS011;26844;53.686;-6.346;2024-03-25T05:35:29;9.48;;;9.07;;
41099;SDS011;26844;53.686;-6.346;2024-03-25T05:37:55;10.00;;;9.60;;
41099;SDS011;26844;53.686;-6.346;2024-03-25T05:40:21;9.30;;;8.90;;
41099;SDS011;26844;53.686;-6.346;2024-03-25T05:42:46;9.32;;;8.93;;
41099;SDS011;26844;53.686;-6.346;2024-03-25T05:45:11;9.70;;;9.30;;
41099;SDS011;26844;53.686;-6.346;2024-03-25T05:47:37;9.40;;;9.00;;
41099;SDS011;26844;53.686;-6.346;2024-03-25T05:50:02;9.60;;;9.20;;
41099;SDS011;26844;53.686;-6.346;2024-03-25T05:52:30;9.48;;;9.07;;
41099;SDS011;26844;53.686;-6.346;2024-03-25T05:54:55;9.13;;;8.73;;
41099;SDS011;26844;53.686;-6.346;2024-03-25T05:57:21;9.80;;;9.40;;
41099;SDS011;26844;53.686;-6.346;2024-03-25T05:59:46;9.40;;;9.00;;
41099;SDS011;26844;53.686;-6.346;2024-03-25T06:02:11;9.73;;;9.32;;
41099;SDS011;26844;53.686;-6.346;2024-03-25T06:04:37;9.70;;;9.30;;
41099;SDS011;26844;53.686;-6.346;2024-03-25T06:07:02;10.00;;;9.60;;
41099;SDS011;26844;53.686;-6.346;2024-03-25T06:09:27;9.82;;;9.43;;
41099;SDS011;26844;53.686;-6.346;2024-03-25T06:11:53;10.00;;;9.60;;
41099;SDS011;26844;53.686;-6.346;2024-03-25T06:14:18;9.70;;;9.30;;
41099;SDS011;26844;53.686;-6.346;2024-03-25T06:16:43;9.80;;;9.40;;
41099;SDS011;26844;53.686;-6.346;2024-03-25T06:19:08;9.73;;;9.32;;
41099;SDS011;26844;53.686;-6.346;2024-03-25T06:21:34;10.32;;;9.93;;
41099;SDS011;26844;53.686;-6.346;2024-03-25T06:23:59;9.75;;;9.35;;
41099;SDS011;26844;53.686;-6.346;2024-03-25T06:26:24;9.90;;;9.50;;
41099;SDS011;26844;53.686;-6.346;2024-03-25T06:28:49;10.23;;;9.82;;
41099;SDS011;26844;53.686;-6.346;2024-03-25T06:31:15;10.02;;;9.63;;
41099;SDS011;26844;53.686;-6.346;2024-03-25T06:33:59;10.20;;;9.80;;
41099;SDS011;26844;53.686;-6.346;2024-03-25T06:36:42;10.13;;;9.73;;
41099;SDS011;26844;53.686;-6.346;2024-03-25T06:39:07;10.40;;;10.00;;
41099;SDS011;26844;53.686;-6.346;2024-03-25T06:41:32;10.32;;;9.93;;
41099;SDS011;26844;53.686;-6.346;2024-03-25T06:43:58;10.50;;;10.10;;
41099;SDS011;26844;53.686;-6.346;2024-03-25T06:46:23;10.20;;;9.80;;
41099;SDS011;26844;53.686;-6.346;2024-03-25T06:48:48;10.60;;;10.20;;
41099;SDS011;26844;53.686;-6.346;2024-03-25T06:51:14;10.05;;;9.65;;
41099;SDS011;26844;53.686;-6.346;2024-03-25T06:53:39;10.35;;;9.95;;
41099;SDS011;26844;53.686;-6.346;2024-03-25T06:56:04;10.40;;;10.00;;
41099;SDS011;26844;53.686;-6.346;2024-03-25T06:58:30;10.00;;;9.60;;
41099;SDS011;26844;53.686;-6.346;2024-03-25T07:00:56;10.30;;;9.90;;
41099;SDS011;26844;53.686;-6.346;2024-03-25T07:03:22;10.60;;;10.20;;
41099;SDS011;26844;53.686;-6.346;2024-03-25T07:05:48;10.15;;;9.75;;
41099;SDS011;26844;53.686;-6.346;2024-03-25T07:08:14;8.40;;;8.10;;
41099;SDS011;26844;53.686;-6.346;2024-03-25T07:10:42;8.20;;;7.90;;
41099;SDS011;26844;53.686;-6.346;2024-03-25T07:13:07;8.52;;;8.23;;
41099;SDS011;26844;53.686;-6.346;2024-03-25T07:15:33;8.50;;;8.20;;
41099;SDS011;26844;53.686;-6.346;2024-03-25T07:17:58;8.55;;;8.25;;
41099;SDS011;26844;53.686;-6.346;2024-03-25T07:20:25;8.93;;;8.63;;
41099;SDS011;26844;53.686;-6.346;2024-03-25T07:22:50;9.30;;;8.90;;
41099;SDS011;26844;53.686;-6.346;2024-03-25T07:25:15;9.20;;;8.80;;
41099;SDS011;26844;53.686;-6.346;2024-03-25T07:27:41;9.38;;;8.98;;
41099;SDS011;26844;53.686;-6.346;2024-03-25T07:30:06;9.00;;;8.70;;
41099;SDS011;26844;53.686;-6.346;2024-03-25T07:32:32;9.38;;;8.98;;
41099;SDS011;26844;53.686;-6.346;2024-03-25T07:34:57;9.20;;;8.80;;
41099;SDS011;26844;53.686;-6.346;2024-03-25T07:37:23;9.30;;;8.90;;
41099;SDS011;26844;53.686;-6.346;2024-03-25T07:39:48;9.55;;;9.15;;
41099;SDS011;26844;53.686;-6.346;2024-03-25T07:42:13;9.07;;;8.75;;
41099;SDS011;26844;53.686;-6.346;2024-03-25T07:44:39;9.00;;;8.70;;
41099;SDS011;26844;53.686;-6.346;2024-03-25T07:47:04;9.23;;;8.82;;
41099;SDS011;26844;53.686;-6.346;2024-03-25T07:49:30;9.77;;;9.38;;
41099;SDS011;26844;53.686;-6.346;2024-03-25T07:51:55;9.63;;;9.23;;
41099;SDS011;26844;53.686;-6.346;2024-03-25T07:54:21;9.50;;;9.10;;
41099;SDS011;26844;53.686;-6.346;2024-03-25T07:56:46;9.40;;;9.00;;
41099;SDS011;26844;53.686;-6.346;2024-03-25T07:59:12;9.63;;;9.23;;
41099;SDS011;26844;53.686;-6.346;2024-03-25T08:01:37;9.63;;;9.23;;
41099;SDS011;26844;53.686;-6.346;2024-03-25T08:04:03;10.00;;;9.60;;
41099;SDS011;26844;53.686;-6.346;2024-03-25T08:06:28;9.70;;;9.30;;
41099;SDS011;26844;53.686;-6.346;2024-03-25T08:08:53;8.80;;;8.50;;
41099;SDS011;26844;53.686;-6.346;2024-03-25T08:11:19;9.70;;;9.30;;
41099;SDS011;26844;53.686;-6.346;2024-03-25T08:13:44;9.80;;;9.40;;
41099;SDS011;26844;53.686;-6.346;2024-03-25T08:16:09;9.40;;;9.00;;
41099;SDS011;26844;53.686;-6.346;2024-03-25T08:18:34;9.50;;;9.10;;
41099;SDS011;26844;53.686;-6.346;2024-03-25T08:21:00;9.40;;;9.00;;
41099;SDS011;26844;53.686;-6.346;2024-03-25T08:23:25;9.20;;;8.80;;
41099;SDS011;26844;53.686;-6.346;2024-03-25T08:25:50;8.93;;;8.63;;
41099;SDS011;26844;53.686;-6.346;2024-03-25T08:28:16;9.00;;;8.70;;
41099;SDS011;26844;53.686;-6.346;2024-03-25T08:30:41;8.80;;;8.50;;
41099;SDS011;26844;53.686;-6.346;2024-03-25T08:33:06;9.77;;;9.38;;
41099;SDS011;26844;53.686;-6.346;2024-03-25T08:35:31;9.80;;;9.40;;
41099;SDS011;26844;53.686;-6.346;2024-03-25T08:37:57;9.45;;;9.05;;
41099;SDS011;26844;53.686;-6.346;2024-03-25T08:40:22;9.80;;;9.40;;
41099;SDS011;26844;53.686;-6.346;2024-03-25T08:42:48;9.65;;;9.25;;
41099;SDS011;26844;53.686;-6.346;2024-03-25T08:45:13;8.40;;;8.10;;
41099;SDS011;26844;53.686;-6.346;2024-03-25T08:47:38;8.52;;;8.23;;
41099;SDS011;26844;53.686;-6.346;2024-03-25T08:50:05;7.80;;;7.50;;
41099;SDS011;26844;53.686;-6.346;2024-03-25T08:52:31;6.93;;;6.72;;
41099;SDS011;26844;53.686;-6.346;2024-03-25T08:54:56;7.10;;;6.88;;
41099;SDS011;26844;53.686;-6.346;2024-03-25T08:57:21;6.88;;;6.68;;
41099;SDS011;26844;53.686;-6.346;2024-03-25T08:59:46;7.40;;;7.10;;
41099;SDS011;26844;53.686;-6.346;2024-03-25T09:02:12;7.00;;;6.80;;
41099;SDS011;26844;53.686;-6.346;2024-03-25T09:04:37;7.00;;;6.80;;
41099;SDS011;26844;53.686;-6.346;2024-03-25T09:07:02;7.10;;;6.85;;
41099;SDS011;26844;53.686;-6.346;2024-03-25T09:09:28;7.20;;;6.90;;
41099;SDS011;26844;53.686;-6.346;2024-03-25T09:12:12;7.40;;;7.10;;
41099;SDS011;26844;53.686;-6.346;2024-03-25T09:14:37;6.80;;;6.60;;
41099;SDS011;26844;53.686;-6.346;2024-03-25T09:17:03;7.95;;;7.65;;
41099;SDS011;26844;53.686;-6.346;2024-03-25T09:19:29;9.25;;;8.95;;
41099;SDS011;26844;53.686;-6.346;2024-03-25T09:21:54;9.10;;;8.80;;
41099;SDS011;26844;53.686;-6.346;2024-03-25T09:24:19;8.93;;;8.63;;
41099;SDS011;26844;53.686;-6.346;2024-03-25T09:26:44;9.15;;;8.85;;
41099;SDS011;26844;53.686;-6.346;2024-03-25T09:29:11;8.40;;;8.10;;
41099;SDS011;26844;53.686;-6.346;2024-03-25T09:31:37;7.63;;;7.32;;
41099;SDS011;26844;53.686;-6.346;2024-03-25T09:34:02;6.60;;;6.40;;
41099;SDS011;26844;53.686;-6.346;2024-03-25T09:36:28;7.70;;;7.40;;
41099;SDS011;26844;53.686;-6.346;2024-03-25T09:38:53;8.10;;;7.80;;
41099;SDS011;26844;53.686;-6.346;2024-03-25T09:41:18;8.35;;;8.05;;
41099;SDS011;26844;53.686;-6.346;2024-03-25T09:43:44;9.10;;;8.80;;
41099;SDS011;26844;53.686;-6.346;2024-03-25T09:46:13;9.60;;;9.20;;
41099;SDS011;26844;53.686;-6.346;2024-03-25T09:48:38;9.20;;;8.90;;
41099;SDS011;26844;53.686;-6.346;2024-03-25T09:51:04;8.85;;;8.55;;
41099;SDS011;26844;53.686;-6.346;2024-03-25T09:53:29;9.38;;;9.00;;
41099;SDS011;26844;53.686;-6.346;2024-03-25T09:55:56;9.23;;;8.93;;
41099;SDS011;26844;53.686;-6.346;2024-03-25T09:58:21;8.90;;;8.60;;
41099;SDS011;26844;53.686;-6.346;2024-03-25T10:00:47;8.30;;;8.00;;
41099;SDS011;26844;53.686;-6.346;2024-03-25T10:03:13;8.38;;;8.07;;
41099;SDS011;26844;53.686;-6.346;2024-03-25T10:05:39;8.93;;;8.63;;
41099;SDS011;26844;53.686;-6.346;2024-03-25T10:08:04;9.45;;;9.07;;
41099;SDS011;26844;53.686;-6.346;2024-03-25T10:10:30;9.98;;;9.57;;
41099;SDS011;26844;53.686;-6.346;2024-03-25T10:12:56;10.00;;;9.60;;
41099;SDS011;26844;53.686;-6.346;2024-03-25T10:15:21;9.80;;;9.40;;
41099;SDS011;26844;53.686;-6.346;2024-03-25T10:17:48;10.00;;;9.60;;
41099;SDS011;26844;53.686;-6.346;2024-03-25T10:20:14;9.82;;;9.43;;
41099;SDS011;26844;53.686;-6.346;2024-03-25T10:22:43;9.82;;;9.43;;
41099;SDS011;26844;53.686;-6.346;2024-03-25T10:25:19;10.07;;;9.68;;
41099;SDS011;26844;53.686;-6.346;2024-03-25T10:27:52;10.55;;;10.15;;
41099;SDS011;26844;53.686;-6.346;2024-03-25T10:30:17;10.50;;;10.10;;
41099;SDS011;26844;53.686;-6.346;2024-03-25T10:32:44;10.50;;;10.10;;
41099;SDS011;26844;53.686;-6.346;2024-03-25T10:35:09;10.43;;;10.02;;
41099;SDS011;26844;53.686;-6.346;2024-03-25T10:37:34;10.15;;;9.75;;
41099;SDS011;26844;53.686;-6.346;2024-03-25T10:40:00;9.15;;;8.85;;
41099;SDS011;26844;53.686;-6.346;2024-03-25T10:42:26;8.50;;;8.20;;
41099;SDS011;26844;53.686;-6.346;2024-03-25T10:44:51;8.80;;;8.50;;
41099;SDS011;26844;53.686;-6.346;2024-03-25T10:47:21;9.10;;;8.80;;
41099;SDS011;26844;53.686;-6.346;2024-03-25T10:49:56;8.90;;;8.60;;
41099;SDS011;26844;53.686;-6.346;2024-03-25T10:52:21;8.95;;;8.65;;
41099;SDS011;26844;53.686;-6.346;2024-03-25T10:54:47;9.20;;;8.90;;
41099;SDS011;26844;53.686;-6.346;2024-03-25T10:57:12;8.15;;;7.85;;
41099;SDS011;26844;53.686;-6.346;2024-03-25T10:59:38;8.40;;;8.10;;
41099;SDS011;26844;53.686;-6.346;2024-03-25T11:02:06;7.70;;;7.40;;
41099;SDS011;26844;53.686;-6.346;2024-03-25T11:04:31;7.68;;;7.38;;
41099;SDS011;26844;53.686;-6.346;2024-03-25T11:07:07;7.32;;;7.03;;
41099;SDS011;26844;53.686;-6.346;2024-03-25T11:09:32;7.60;;;7.30;;
41099;SDS011;26844;53.686;-6.346;2024-03-25T11:11:58;8.50;;;8.20;;
41099;SDS011;26844;53.686;-6.346;2024-03-25T11:14:26;9.25;;;8.95;;
41099;SDS011;26844;53.686;-6.346;2024-03-25T11:16:54;8.70;;;8.40;;
41099;SDS011;26844;53.686;-6.346;2024-03-25T11:19:20;8.80;;;8.50;;
41099;SDS011;26844;53.686;-6.346;2024-03-25T11:21:46;9.00;;;8.70;;
41099;SDS011;26844;53.686;-6.346;2024-03-25T11:24:11;9.07;;;8.77;;
41099;SDS011;26844;53.686;-6.346;2024-03-25T11:26:41;8.90;;;8.60;;
41099;SDS011;26844;53.686;-6.346;2024-03-25T11:29:06;8.90;;;8.60;;
41099;SDS011;26844;53.686;-6.346;2024-03-25T11:31:36;8.90;;;8.60;;
41099;SDS011;26844;53.686;-6.346;2024-03-25T11:34:05;9.00;;;8.70;;
41099;SDS011;26844;53.686;-6.346;2024-03-25T11:36:33;9.20;;;8.90;;
41099;SDS011;26844;53.686;-6.346;2024-03-25T11:39:02;9.10;;;8.80;;
41099;SDS011;26844;53.686;-6.346;2024-03-25T11:41:34;9.10;;;8.80;;
41099;SDS011;26844;53.686;-6.346;2024-03-25T11:44:00;9.02;;;8.73;;
41099;SDS011;26844;53.686;-6.346;2024-03-25T11:46:26;9.57;;;9.18;;
41099;SDS011;26844;53.686;-6.346;2024-03-25T11:48:52;8.77;;;8.48;;
41099;SDS011;26844;53.686;-6.346;2024-03-25T11:51:17;8.90;;;8.60;;
41099;SDS011;26844;53.686;-6.346;2024-03-25T11:53:43;9.02;;;8.73;;
41099;SDS011;26844;53.686;-6.346;2024-03-25T11:56:08;9.10;;;8.80;;
41099;SDS011;26844;53.686;-6.346;2024-03-25T11:58:34;9.63;;;9.23;;
41099;SDS011;26844;53.686;-6.346;2024-03-25T12:00:59;9.45;;;9.05;;
41099;SDS011;26844;53.686;-6.346;2024-03-25T12:03:25;9.10;;;8.80;;
41099;SDS011;26844;53.686;-6.346;2024-03-25T12:05:50;9.60;;;9.20;;
41099;SDS011;26844;53.686;-6.346;2024-03-25T12:08:16;9.32;;;8.93;;
41099;SDS011;26844;53.686;-6.346;2024-03-25T12:10:42;9.55;;;9.15;;
41099;SDS011;26844;53.686;-6.346;2024-03-25T12:13:26;9.52;;;9.13;;
41099;SDS011;26844;53.686;-6.346;2024-03-25T12:15:52;9.05;;;8.75;;
41099;SDS011;26844;53.686;-6.346;2024-03-25T12:18:18;9.32;;;8.93;;
41099;SDS011;26844;53.686;-6.346;2024-03-25T12:20:46;9.13;;;8.82;;
41099;SDS011;26844;53.686;-6.346;2024-03-25T12:23:11;8.95;;;8.65;;
41099;SDS011;26844;53.686;-6.346;2024-03-25T12:25:36;9.02;;;8.73;;
41099;SDS011;26844;53.686;-6.346;2024-03-25T12:28:07;9.25;;;8.90;;
41099;SDS011;26844;53.686;-6.346;2024-03-25T12:30:32;8.88;;;8.57;;
41099;SDS011;26844;53.686;-6.346;2024-03-25T12:32:58;8.82;;;8.52;;
41099;SDS011;26844;53.686;-6.346;2024-03-25T12:35:23;8.25;;;7.95;;
41099;SDS011;26844;53.686;-6.346;2024-03-25T12:37:48;8.30;;;8.00;;
41099;SDS011;26844;53.686;-6.346;2024-03-25T12:40:27;8.25;;;7.95;;
41099;SDS011;26844;53.686;-6.346;2024-03-25T12:42:54;8.50;;;8.20;;
41099;SDS011;26844;53.686;-6.346;2024-03-25T12:45:20;9.30;;;8.95;;
41099;SDS011;26844;53.686;-6.346;2024-03-25T12:47:45;8.63;;;8.32;;
41099;SDS011;26844;53.686;-6.346;2024-03-25T12:50:11;8.27;;;7.97;;
41099;SDS011;26844;53.686;-6.346;2024-03-25T12:52:36;8.07;;;7.78;;
41099;SDS011;26844;53.686;-6.346;2024-03-25T12:55:01;7.70;;;7.40;;
41099;SDS011;26844;53.686;-6.346;2024-03-25T12:57:27;7.60;;;7.30;;
41099;SDS011;26844;53.686;-6.346;2024-03-25T12:59:52;7.50;;;7.20;;
41099;SDS011;26844;53.686;-6.346;2024-03-25T13:02:17;7.50;;;7.20;;
41099;SDS011;26844;53.686;-6.346;2024-03-25T13:04:44;8.15;;;7.85;;
41099;SDS011;26844;53.686;-6.346;2024-03-25T13:07:09;8.65;;;8.35;;
41099;SDS011;26844;53.686;-6.346;2024-03-25T13:09:35;8.50;;;8.20;;
41099;SDS011;26844;53.686;-6.346;2024-03-25T13:12:00;8.70;;;8.40;;
41099;SDS011;26844;53.686;-6.346;2024-03-25T13:14:26;8.50;;;8.20;;
41099;SDS011;26844;53.686;-6.346;2024-03-25T13:16:51;8.15;;;7.85;;
41099;SDS011;26844;53.686;-6.346;2024-03-25T13:19:17;8.40;;;8.10;;
41099;SDS011;26844;53.686;-6.346;2024-03-25T13:21:42;8.20;;;7.90;;
41099;SDS011;26844;53.686;-6.346;2024-03-25T13:24:07;8.20;;;7.90;;
41099;SDS011;26844;53.686;-6.346;2024-03-25T13:26:33;7.95;;;7.65;;
41099;SDS011;26844;53.686;-6.346;2024-03-25T13:28:58;8.00;;;7.70;;
41099;SDS011;26844;53.686;-6.346;2024-03-25T13:31:23;8.38;;;8.07;;
41099;SDS011;26844;53.686;-6.346;2024-03-25T13:33:49;8.23;;;7.93;;
41099;SDS011;26844;53.686;-6.346;2024-03-25T13:36:14;8.27;;;7.97;;
41099;SDS011;26844;53.686;-6.346;2024-03-25T13:38:39;7.93;;;7.63;;
41099;SDS011;26844;53.686;-6.346;2024-03-25T13:41:05;8.00;;;7.70;;
41099;SDS011;26844;53.686;-6.346;2024-03-25T13:43:31;7.63;;;7.32;;
41099;SDS011;26844;53.686;-6.346;2024-03-25T13:45:56;8.00;;;7.70;;
41099;SDS011;26844;53.686;-6.346;2024-03-25T13:48:21;8.00;;;7.70;;
41099;SDS011;26844;53.686;-6.346;2024-03-25T13:50:47;7.68;;;7.38;;
41099;SDS011;26844;53.686;-6.346;2024-03-25T13:53:13;8.00;;;7.70;;
41099;SDS011;26844;53.686;-6.346;2024-03-25T13:55:38;7.90;;;7.60;;
41099;SDS011;26844;53.686;-6.346;2024-03-25T13:58:04;7.45;;;7.15;;
41099;SDS011;26844;53.686;-6.346;2024-03-25T14:00:30;7.50;;;7.20;;
41099;SDS011;26844;53.686;-6.346;2024-03-25T14:02:55;7.45;;;7.15;;
41099;SDS011;26844;53.686;-6.346;2024-03-25T14:05:21;7.80;;;7.50;;
41099;SDS011;26844;53.686;-6.346;2024-03-25T14:07:48;7.68;;;7.38;;
41099;SDS011;26844;53.686;-6.346;2024-03-25T14:10:13;7.13;;;6.90;;
41099;SDS011;26844;53.686;-6.346;2024-03-25T14:12:38;7.95;;;7.65;;
41099;SDS011;26844;53.686;-6.346;2024-03-25T14:15:04;7.90;;;7.60;;